الصفحة الرئيسية
METAR-TAF:

METAR-TAF

مطار :

جزيرة جروت آيلاند, أستراليا

دائرة عرض: 13-58-30S, خط طول: 136-27-36E, ارتفاع: 16 متر

مراقبة الطقس الحالي

تاريخ ووقت الإصدار 31 دقيقة قبل الساعة 21:00UTC
ريح 3 عقدة من الجنوب الشرقي
درجة الحرارة 21°درجة مئوية
الرطوبة 94%
ضغط 1009 hPa
الرؤية 10 كم أو أكثر

METAR: YGTE 172100Z AUTO 14003KT 9999 // NCD 21/20 Q1009

زمن: 07:01 (21:31 UTC)


TAF: مفقودة

أرصاد الطقس والتوقعات من أكثر من 4000 مطار (تقارير الطقس للمطار METAR والتنبؤ بالطقس بالمطارTAF).

المحطات المتاحة هي النقط الصفراء والحمراء على الخريطة.

حرك المؤشر فوق النقطة لمعرفة اسم المحطة.

ثم انقر لمعرفة أرصاد وتوقعات الطقس.

لتغيير الخارطة: اضغط على الأزرار الخضراء مع رمز الصليب الأسود للتكبير. على الزر الأخضر مع شرطة للتصغير، أو على الأسهم الخضراء للخرائط المجاورة.


METAR-TAF: